createdAt,value
2023-02-03T00:00:41.131Z,100864.81
2023-02-03T00:02:12.866Z,100859.47
2023-02-03T00:03:44.681Z,100859.38
2023-02-03T00:05:16.416Z,100862.00
2023-02-03T00:06:48.455Z,100850.44
2023-02-03T00:08:20.558Z,100853.91
2023-02-03T00:09:52.404Z,100853.84
2023-02-03T00:11:24.307Z,100855.59
2023-02-03T00:12:57.718Z,100854.66
2023-02-03T00:14:29.430Z,100853.69
2023-02-03T00:16:02.182Z,100848.28
2023-02-03T00:17:33.917Z,100849.09
2023-02-03T00:19:05.650Z,100843.69
2023-02-03T00:20:37.340Z,100848.03
2023-02-03T00:22:09.097Z,100846.25
2023-02-03T00:23:43.934Z,100847.97
2023-02-03T00:25:15.686Z,100844.31
2023-02-03T00:26:47.422Z,100841.66
2023-02-03T00:28:19.801Z,100834.50
2023-02-03T00:29:51.514Z,100840.69
2023-02-03T00:31:25.127Z,100838.88
2023-02-03T00:32:57.194Z,100837.03
2023-02-03T00:34:30.381Z,100837.84
2023-02-03T00:36:06.714Z,100830.66
2023-02-03T00:37:38.448Z,100828.94
2023-02-03T00:39:10.170Z,100821.75
2023-02-03T00:40:41.993Z,100818.19
2023-02-03T00:42:13.711Z,100820.84
2023-02-03T00:43:45.458Z,100819.03
2023-02-03T00:45:17.285Z,100814.56
2023-02-03T00:46:49.594Z,100806.53
2023-02-03T00:48:21.370Z,100801.16
2023-02-03T00:49:53.087Z,100797.66
2023-02-03T00:51:25.018Z,100788.78
2023-02-03T00:52:59.575Z,100792.34
2023-02-03T00:54:32.749Z,100787.03
2023-02-03T00:56:12.568Z,100788.81
2023-02-03T00:57:44.357Z,100784.38
2023-02-03T00:59:16.118Z,100777.31
2023-02-03T01:00:48.032Z,100779.03
2023-02-03T01:02:19.837Z,100775.50
2023-02-03T01:03:51.605Z,100774.66
2023-02-03T01:05:23.961Z,100771.13
2023-02-03T01:06:57.650Z,100772.00
2023-02-03T01:08:32.321Z,100764.09
2023-02-03T01:10:05.208Z,100764.94
2023-02-03T01:11:38.328Z,100759.63
2023-02-03T01:13:10.142Z,100759.63
2023-02-03T01:14:41.842Z,100750.78
2023-02-03T01:16:16.410Z,100744.56
2023-02-03T01:17:48.172Z,100743.69
2023-02-03T01:19:19.896Z,100741.97
2023-02-03T01:20:51.626Z,100745.50
2023-02-03T01:22:23.325Z,100744.69
2023-02-03T01:23:55.615Z,100729.75
2023-02-03T01:25:27.362Z,100729.78
2023-02-03T01:26:59.197Z,100725.41
2023-02-03T01:28:33.063Z,100718.41
2023-02-03T01:30:05.275Z,100722.88
2023-02-03T01:31:40.011Z,100713.16
2023-02-03T01:33:12.320Z,100704.38
2023-02-03T01:34:44.089Z,100701.81
2023-02-03T01:36:17.440Z,100693.94
2023-02-03T01:37:49.156Z,100689.50
2023-02-03T01:39:21.124Z,100678.94
2023-02-03T01:40:52.849Z,100674.53
2023-02-03T01:42:24.666Z,100676.47
2023-02-03T01:43:59.302Z,100683.59
2023-02-03T01:45:31.136Z,100685.47
2023-02-03T01:47:06.551Z,100688.16
2023-02-03T01:48:38.501Z,100685.59
2023-02-03T01:50:20.586Z,100683.03
2023-02-03T01:51:53.619Z,100682.09
2023-02-03T01:53:25.371Z,100682.19
2023-02-03T01:55:00.696Z,100674.25
2023-02-03T01:56:36.869Z,100669.88
2023-02-03T01:58:26.045Z,100663.72
2023-02-03T01:59:59.192Z,100653.97
2023-02-03T02:01:33.427Z,100653.09
2023-02-03T02:03:08.203Z,100648.63
2023-02-03T02:04:50.775Z,100636.41
2023-02-03T02:06:22.745Z,100635.41
2023-02-03T02:07:57.711Z,100625.97
2023-02-03T02:09:29.724Z,100627.69
2023-02-03T02:11:01.912Z,100619.75
2023-02-03T02:12:33.676Z,100618.03
2023-02-03T02:14:05.577Z,100611.78
2023-02-03T02:15:55.510Z,100609.13
2023-02-03T02:17:50.067Z,100603.06
2023-02-03T02:19:56.439Z,100611.03
2023-02-03T02:21:59.785Z,100600.41
2023-02-03T02:23:43.695Z,100605.97
2023-02-03T02:25:48.250Z,100609.69
2023-02-03T02:27:32.284Z,100598.81
2023-02-03T02:29:23.901Z,100601.56
2023-02-03T02:32:03.179Z,100594.47
2023-02-03T02:33:45.357Z,100587.44
2023-02-03T02:36:01.492Z,100575.13
2023-02-03T02:37:45.565Z,100576.69
2023-02-03T02:39:30.126Z,100577.53
2023-02-03T02:41:28.131Z,100571.16
2023-02-03T02:43:03.801Z,100562.28
2023-02-03T02:44:44.142Z,100557.72
2023-02-03T02:46:24.209Z,100553.28
2023-02-03T02:48:05.653Z,100551.44
2023-02-03T02:49:44.754Z,100542.47
2023-02-03T02:51:17.085Z,100539.69
2023-02-03T02:52:50.404Z,100528.09
2023-02-03T02:54:27.569Z,100520.13
2023-02-03T02:56:03.234Z,100519.13
2023-02-03T02:57:37.596Z,100515.53
2023-02-03T02:59:09.761Z,100517.16
2023-02-03T03:00:43.008Z,100506.50
2023-02-03T03:02:15.544Z,100506.34
2023-02-03T03:03:47.305Z,100502.63
2023-02-03T03:05:19.479Z,100497.25
2023-02-03T03:07:00.760Z,100486.53
2023-02-03T03:08:49.924Z,100485.66
2023-02-03T03:10:27.790Z,100488.19
2023-02-03T03:12:07.627Z,100479.28
2023-02-03T03:13:48.111Z,100474.75
2023-02-03T03:15:26.829Z,100473.88
2023-02-03T03:17:01.969Z,100475.47
2023-02-03T03:18:39.077Z,100473.69
2023-02-03T03:20:17.287Z,100473.47
2023-02-03T03:21:59.201Z,100462.78
2023-02-03T03:23:35.393Z,100467.88
2023-02-03T03:25:19.351Z,100468.69
2023-02-03T03:27:02.565Z,100471.19
2023-02-03T03:28:42.388Z,100471.84
2023-02-03T03:30:28.388Z,100470.03
2023-02-03T03:32:00.638Z,100468.75
2023-02-03T03:33:32.446Z,100467.75
2023-02-03T03:35:05.711Z,100467.53
2023-02-03T03:37:03.171Z,100467.47
2023-02-03T03:38:41.471Z,100465.31
2023-02-03T03:40:28.525Z,100451.78
2023-02-03T03:42:23.120Z,100464.78
2023-02-03T03:43:57.682Z,100462.53
2023-02-03T03:45:42.438Z,100463.25
2023-02-03T03:47:30.750Z,100459.44
2023-02-03T03:49:05.548Z,100459.94
2023-02-03T03:50:41.844Z,100458.69
2023-02-03T03:52:20.420Z,100454.94
2023-02-03T03:53:54.089Z,100453.72
2023-02-03T03:55:29.002Z,100454.22
2023-02-03T03:57:15.666Z,100438.13
2023-02-03T03:58:50.160Z,100430.53
2023-02-03T04:00:26.130Z,100422.31
2023-02-03T04:02:04.555Z,100419.34
2023-02-03T04:03:44.820Z,100416.44
2023-02-03T04:05:18.811Z,100404.66
2023-02-03T04:06:52.799Z,100389.13
2023-02-03T04:08:24.741Z,100386.19
2023-02-03T04:09:56.428Z,100377.13
2023-02-03T04:11:46.858Z,100366.19
2023-02-03T04:13:20.596Z,100365.88
2023-02-03T04:14:52.301Z,100377.22
2023-02-03T04:16:24.001Z,100369.91
2023-02-03T04:17:57.175Z,100375.00
2023-02-03T04:19:28.885Z,100364.09
2023-02-03T04:21:00.905Z,100368.31
2023-02-03T04:22:32.715Z,100377.00
2023-02-03T04:24:04.674Z,100368.75
2023-02-03T04:25:36.663Z,100359.81
2023-02-03T04:27:09.144Z,100367.53
2023-02-03T04:28:40.819Z,100355.84
2023-02-03T04:30:13.406Z,100375.16
2023-02-03T04:31:45.118Z,100367.88
2023-02-03T04:33:17.201Z,100370.50
2023-02-03T04:34:48.906Z,100371.97
2023-02-03T04:36:20.679Z,100370.84
2023-02-03T04:37:52.372Z,100373.41
2023-02-03T04:39:24.074Z,100375.06
2023-02-03T04:40:55.746Z,100373.06
2023-02-03T04:42:27.423Z,100373.84
2023-02-03T04:43:59.139Z,100365.75
2023-02-03T04:45:30.895Z,100367.31
2023-02-03T04:47:02.595Z,100353.97
2023-02-03T04:48:35.866Z,100355.56
2023-02-03T04:50:08.138Z,100360.75
2023-02-03T04:51:39.825Z,100365.84
2023-02-03T04:53:11.545Z,100367.53
2023-02-03T04:54:43.244Z,100367.44
2023-02-03T04:56:16.507Z,100369.94
2023-02-03T04:57:48.215Z,100370.84
2023-02-03T04:59:19.898Z,100370.66
2023-02-03T05:00:51.615Z,100371.59
2023-02-03T05:02:23.316Z,100370.66
2023-02-03T05:03:55.030Z,100366.16
2023-02-03T05:05:26.707Z,100358.84
2023-02-03T05:06:58.467Z,100364.06
2023-02-03T05:08:30.794Z,100364.00
2023-02-03T05:10:02.567Z,100352.47
2023-02-03T05:11:34.282Z,100360.28
2023-02-03T05:13:06.148Z,100346.06
2023-02-03T05:14:37.870Z,100346.84
2023-02-03T05:16:09.622Z,100332.50
2023-02-03T05:17:41.349Z,100340.53
2023-02-03T05:19:13.705Z,100337.84
2023-02-03T05:20:45.390Z,100348.38
2023-02-03T05:22:17.120Z,100329.66
2023-02-03T05:23:48.821Z,100323.38
2023-02-03T05:25:20.562Z,100323.28
2023-02-03T05:26:52.494Z,100316.13
2023-02-03T05:28:24.157Z,100324.13
2023-02-03T05:29:55.847Z,100307.94
2023-02-03T05:31:27.552Z,100306.22
2023-02-03T05:32:59.266Z,100298.94
2023-02-03T05:34:30.940Z,100289.22
2023-02-03T05:36:02.730Z,100290.06
2023-02-03T05:37:34.459Z,100303.38
2023-02-03T05:39:06.219Z,100314.84
2023-02-03T05:40:56.639Z,100311.22
2023-02-03T05:42:28.331Z,100305.88
2023-02-03T05:44:00.236Z,100315.63
2023-02-03T05:45:32.182Z,100307.50
2023-02-03T05:47:03.972Z,100303.88
2023-02-03T05:48:35.933Z,100285.94
2023-02-03T05:50:08.231Z,100298.34
2023-02-03T05:51:40.623Z,100309.06
2023-02-03T05:53:12.605Z,100311.63
2023-02-03T05:54:44.333Z,100323.09
2023-02-03T05:56:16.104Z,100320.50
2023-02-03T05:57:47.820Z,100316.97
2023-02-03T05:59:19.693Z,100310.59
2023-02-03T06:00:53.002Z,100314.13
2023-02-03T06:02:24.757Z,100307.81
2023-02-03T06:03:56.724Z,100303.34
2023-02-03T06:05:30.432Z,100297.09
2023-02-03T06:07:02.171Z,100290.84
2023-02-03T06:08:33.858Z,100304.09
2023-02-03T06:10:06.201Z,100307.63
2023-02-03T06:11:37.987Z,100300.47
2023-02-03T06:13:16.368Z,100296.94
2023-02-03T06:14:48.141Z,100290.66
2023-02-03T06:16:19.999Z,100293.31
2023-02-03T06:17:52.098Z,100291.41
2023-02-03T06:19:23.904Z,100285.00
2023-02-03T06:20:55.740Z,100280.50
2023-02-03T06:22:27.526Z,100277.94
2023-02-03T06:23:59.306Z,100271.63
2023-02-03T06:25:32.825Z,100273.47
2023-02-03T06:27:04.625Z,100270.59
2023-02-03T06:28:38.302Z,100275.84
2023-02-03T06:30:11.479Z,100266.97
2023-02-03T06:31:43.340Z,100269.63
2023-02-03T06:33:15.123Z,100267.75
2023-02-03T06:34:47.022Z,100265.91
2023-02-03T06:36:18.797Z,100269.44
2023-02-03T06:37:50.606Z,100277.41
2023-02-03T06:39:22.447Z,100269.25
2023-02-03T06:40:54.175Z,100269.25
2023-02-03T06:42:25.898Z,100255.81
2023-02-03T06:43:57.607Z,100258.50
2023-02-03T06:45:29.411Z,100252.06
2023-02-03T06:47:03.008Z,100252.06
2023-02-03T06:48:34.765Z,100251.03
2023-02-03T06:50:07.047Z,100248.34
2023-02-03T06:51:38.930Z,100253.63
2023-02-03T06:53:10.703Z,100238.25
2023-02-03T06:54:42.500Z,100236.31
2023-02-03T06:56:14.227Z,100225.72
2023-02-03T06:57:47.512Z,100228.41
2023-02-03T06:59:19.286Z,100225.72
2023-02-03T07:00:51.930Z,100217.69
2023-02-03T07:02:24.099Z,100223.03
2023-02-03T07:03:58.094Z,100216.72
2023-02-03T07:05:30.131Z,100207.78
2023-02-03T07:07:02.095Z,100190.75
2023-02-03T07:08:33.854Z,100203.16
2023-02-03T07:10:06.869Z,100202.44
2023-02-03T07:11:38.601Z,100189.97
2023-02-03T07:13:10.346Z,100201.47
2023-02-03T07:14:42.281Z,100184.56
2023-02-03T07:16:14.658Z,100184.56
2023-02-03T07:17:54.660Z,100187.88
2023-02-03T07:19:26.575Z,100180.81
2023-02-03T07:20:58.357Z,100182.53
2023-02-03T07:22:30.115Z,100184.25
2023-02-03T07:24:03.190Z,100185.88
2023-02-03T07:25:35.070Z,100174.31
2023-02-03T07:27:06.951Z,100177.84
2023-02-03T07:28:38.660Z,100180.34
2023-02-03T07:30:11.151Z,100181.19
2023-02-03T07:31:43.102Z,100179.47
2023-02-03T07:33:14.930Z,100185.56
2023-02-03T07:34:46.643Z,100177.47
2023-02-03T07:36:18.369Z,100194.38
2023-02-03T07:37:50.100Z,100189.88
2023-02-03T07:39:21.870Z,100178.84
2023-02-03T07:40:54.010Z,100181.47
2023-02-03T07:42:25.716Z,100178.78
2023-02-03T07:43:57.644Z,100172.38
2023-02-03T07:45:29.386Z,100169.59
2023-02-03T07:47:01.202Z,100171.41
2023-02-03T07:48:35.513Z,100183.94
2023-02-03T07:50:07.625Z,100168.66
2023-02-03T07:51:39.444Z,100170.38
2023-02-03T07:53:11.227Z,100170.44
2023-02-03T07:54:42.968Z,100166.84
2023-02-03T07:56:14.759Z,100176.56
2023-02-03T07:57:46.519Z,100165.97
2023-02-03T07:59:18.277Z,100174.09
2023-02-03T08:00:50.064Z,100168.75
2023-02-03T08:02:22.134Z,100159.94
2023-02-03T08:03:55.197Z,100149.34
2023-02-03T08:05:27.205Z,100157.47
2023-02-03T08:06:59.025Z,100152.22
2023-02-03T08:08:31.613Z,100160.38
2023-02-03T08:10:04.247Z,100148.88
2023-02-03T08:11:36.029Z,100158.81
2023-02-03T08:13:07.975Z,100156.16
2023-02-03T08:14:39.826Z,100158.06
2023-02-03T08:16:11.674Z,100154.63
2023-02-03T08:17:44.613Z,100162.66
2023-02-03T08:19:16.448Z,100143.16
2023-02-03T08:20:48.390Z,100142.31
2023-02-03T08:22:20.205Z,100138.69
2023-02-03T08:23:51.976Z,100151.19
2023-02-03T08:25:23.697Z,100134.19
2023-02-03T08:26:55.506Z,100151.09
2023-02-03T08:28:27.262Z,100145.84
2023-02-03T08:29:59.370Z,100144.97
2023-02-03T08:31:31.612Z,100150.34
2023-02-03T08:33:03.554Z,100150.44
2023-02-03T08:34:35.311Z,100153.84
2023-02-03T08:36:07.680Z,100134.19
2023-02-03T08:37:39.449Z,100127.13
2023-02-03T08:39:12.272Z,100136.97
2023-02-03T08:40:44.031Z,100129.91
2023-02-03T08:42:16.113Z,100135.13
2023-02-03T08:43:47.877Z,100120.91
2023-02-03T08:45:19.886Z,100119.84
2023-02-03T08:46:53.552Z,100133.16
2023-02-03T08:48:25.432Z,100121.56
2023-02-03T08:49:57.263Z,100114.50
2023-02-03T08:51:29.476Z,100114.31
2023-02-03T08:53:01.215Z,100125.00
2023-02-03T08:54:33.833Z,100120.63
2023-02-03T08:56:08.122Z,100117.84
2023-02-03T08:57:42.159Z,100122.22
2023-02-03T08:59:15.453Z,100123.19
2023-02-03T09:00:50.051Z,100113.47
2023-02-03T09:02:21.879Z,100112.59
2023-02-03T09:03:53.960Z,100099.13
2023-02-03T09:05:25.750Z,100101.91
2023-02-03T09:06:57.477Z,100090.25
2023-02-03T09:08:29.607Z,100092.06
2023-02-03T09:10:01.420Z,100087.38
2023-02-03T09:11:33.141Z,100079.34
2023-02-03T09:13:04.903Z,100084.69
2023-02-03T09:14:36.831Z,100085.47
2023-02-03T09:16:09.344Z,100080.09
2023-02-03T09:17:41.239Z,100085.34
2023-02-03T09:19:13.728Z,100071.97
2023-02-03T09:20:45.827Z,100064.91
2023-02-03T09:22:17.618Z,100058.59
2023-02-03T09:23:49.483Z,100066.63
2023-02-03T09:25:21.596Z,100059.56
2023-02-03T09:26:53.436Z,100060.41
2023-02-03T09:28:25.221Z,100059.44
2023-02-03T09:29:58.651Z,100067.47
2023-02-03T09:31:30.736Z,100066.63
2023-02-03T09:33:03.009Z,100058.69
2023-02-03T09:34:35.064Z,100062.88
2023-02-03T09:36:07.694Z,100057.53
2023-02-03T09:37:39.467Z,100040.63
2023-02-03T09:39:11.234Z,100037.06
2023-02-03T09:40:43.045Z,100030.00
2023-02-03T09:42:34.991Z,100013.22
2023-02-03T09:44:16.706Z,100006.06
2023-02-03T09:45:48.627Z,99994.25
2023-02-03T09:47:26.983Z,99995.25
2023-02-03T09:49:14.891Z,99990.00
2023-02-03T09:50:48.401Z,99986.16
2023-02-03T09:52:36.244Z,99982.06
2023-02-03T09:54:17.779Z,99978.44
2023-02-03T09:55:49.885Z,99980.25
2023-02-03T09:57:30.459Z,99979.09
2023-02-03T09:59:03.430Z,99967.50
2023-02-03T10:00:59.053Z,99973.84
2023-02-03T10:02:55.321Z,99969.47
2023-02-03T10:04:29.938Z,99969.25
2023-02-03T10:06:06.788Z,99992.34
2023-02-03T10:08:00.203Z,99968.41
2023-02-03T10:10:03.544Z,99969.25
2023-02-03T10:12:14.105Z,99967.41
2023-02-03T10:13:59.467Z,99954.69
2023-02-03T10:15:57.303Z,99960.16
2023-02-03T10:17:39.326Z,99958.13
2023-02-03T10:19:21.028Z,99950.09
2023-02-03T10:21:00.206Z,99952.66
2023-02-03T10:22:38.058Z,99955.25
2023-02-03T10:24:15.360Z,99946.25
2023-02-03T10:25:57.284Z,99940.91
2023-02-03T10:27:32.138Z,99929.22
2023-02-03T10:29:17.556Z,99922.16
2023-02-03T10:30:56.989Z,99927.31
2023-02-03T10:32:29.072Z,99929.00
2023-02-03T10:34:19.436Z,99924.84
2023-02-03T10:35:53.573Z,99922.81
2023-02-03T10:37:33.839Z,99906.53
2023-02-03T10:39:25.450Z,99897.03
2023-02-03T10:40:57.275Z,99893.50
2023-02-03T10:42:53.367Z,99904.00
2023-02-03T10:44:39.297Z,99888.78
2023-02-03T10:46:11.070Z,99893.94
2023-02-03T10:47:55.763Z,99894.78
2023-02-03T10:49:28.953Z,99900.13
2023-02-03T10:51:02.351Z,99880.22
2023-02-03T10:52:35.891Z,99873.88
2023-02-03T10:54:32.193Z,99873.25
2023-02-03T10:56:06.381Z,99870.91
2023-02-03T10:57:39.587Z,99864.56
2023-02-03T10:59:29.517Z,99864.47
2023-02-03T11:01:13.153Z,99884.94
2023-02-03T11:02:45.644Z,99890.69
2023-02-03T11:04:32.567Z,99872.06
2023-02-03T11:06:10.991Z,99878.16
2023-02-03T11:07:43.859Z,99865.41
2023-02-03T11:09:30.871Z,99856.53
2023-02-03T11:11:05.751Z,99857.06
2023-02-03T11:12:37.514Z,99860.47
2023-02-03T11:14:09.194Z,99867.31
2023-02-03T11:16:05.925Z,99852.22
2023-02-03T11:17:44.693Z,99862.50
2023-02-03T11:19:22.372Z,99846.22
2023-02-03T11:20:54.504Z,99851.22
2023-02-03T11:22:40.135Z,99846.00
2023-02-03T11:24:20.518Z,99833.78
2023-02-03T11:25:52.497Z,99833.41
2023-02-03T11:27:25.556Z,99823.69
2023-02-03T11:29:00.554Z,99853.88
2023-02-03T11:30:32.487Z,99850.03
2023-02-03T11:32:34.545Z,99863.41
2023-02-03T11:34:17.594Z,99856.09
2023-02-03T11:35:57.936Z,99872.19
2023-02-03T11:37:45.412Z,99869.50
2023-02-03T11:39:20.861Z,99851.72
2023-02-03T11:41:00.087Z,99847.34
2023-02-03T11:42:31.831Z,99848.91
2023-02-03T11:44:12.683Z,99847.97
2023-02-03T11:45:48.144Z,99840.03
2023-02-03T11:47:22.828Z,99838.34
2023-02-03T11:49:12.975Z,99831.50
2023-02-03T11:51:18.389Z,99823.47
2023-02-03T11:53:00.699Z,99829.75
2023-02-03T11:54:58.443Z,99821.63
2023-02-03T11:56:39.109Z,99799.22
2023-02-03T11:58:30.152Z,99777.94
2023-02-03T12:00:14.976Z,99760.13
2023-02-03T12:02:13.382Z,99768.06
2023-02-03T12:04:16.315Z,99757.44
2023-02-03T12:06:24.668Z,99719.00
2023-02-03T12:08:20.899Z,99721.94
2023-02-03T12:10:17.889Z,99729.00
2023-02-03T12:12:27.552Z,99716.38
2023-02-03T12:14:07.029Z,99750.88
2023-02-03T12:16:20.452Z,99771.19
2023-02-03T12:18:07.374Z,99780.00
2023-02-03T12:20:01.980Z,99763.69
2023-02-03T12:21:44.421Z,99788.56
2023-02-03T12:23:32.828Z,99766.00
2023-02-03T12:25:38.556Z,99778.06
2023-02-03T12:27:33.816Z,99739.56
2023-02-03T12:29:25.738Z,99758.44
2023-02-03T12:31:09.579Z,99758.56
2023-02-03T12:32:53.436Z,99760.25
2023-02-03T12:34:41.455Z,99764.66
2023-02-03T12:36:41.692Z,99761.25
2023-02-03T12:38:26.763Z,99744.19
2023-02-03T12:40:04.803Z,99757.56
2023-02-03T12:41:40.813Z,99758.34
2023-02-03T12:43:37.788Z,99746.88
2023-02-03T12:45:18.919Z,99747.72
2023-02-03T12:47:16.997Z,99745.91
2023-02-03T12:48:58.421Z,99743.94
2023-02-03T12:50:36.727Z,99735.81
2023-02-03T12:52:17.344Z,99747.88
2023-02-03T12:53:57.031Z,99763.00
2023-02-03T12:55:35.701Z,99756.78
2023-02-03T12:57:30.913Z,99737.38
2023-02-03T12:59:09.552Z,99774.56
2023-02-03T13:00:50.375Z,99781.84
2023-02-03T13:02:28.165Z,99796.09
2023-02-03T13:04:11.994Z,99785.63
2023-02-03T13:05:50.682Z,99813.00
2023-02-03T13:07:33.625Z,99844.19
2023-02-03T13:09:34.909Z,99847.34
2023-02-03T13:11:26.241Z,99847.97
2023-02-03T13:12:59.082Z,99837.69
2023-02-03T13:14:39.824Z,99836.03
2023-02-03T13:16:14.153Z,99828.13
2023-02-03T13:17:52.288Z,99814.13
2023-02-03T13:19:36.779Z,99813.75
2023-02-03T13:21:12.669Z,99824.56
2023-02-03T13:22:44.811Z,99814.50
2023-02-03T13:24:17.444Z,99819.53
2023-02-03T13:26:11.165Z,99828.41
2023-02-03T13:27:54.680Z,99829.69
2023-02-03T13:29:47.359Z,99833.00
2023-02-03T13:31:41.179Z,99833.97
2023-02-03T13:33:39.733Z,99842.28
2023-02-03T13:35:58.150Z,99828.38
2023-02-03T13:37:39.837Z,99849.00
2023-02-03T13:39:46.286Z,99831.25
2023-02-03T13:41:30.287Z,99841.84
2023-02-03T13:43:07.101Z,99853.38
2023-02-03T13:44:41.182Z,99846.66
2023-02-03T13:46:21.328Z,99866.84
2023-02-03T13:47:57.174Z,99864.06
2023-02-03T13:49:32.762Z,99866.66
2023-02-03T13:51:15.326Z,99866.75
2023-02-03T13:53:03.251Z,99877.13
2023-02-03T13:54:42.849Z,99877.78
2023-02-03T13:56:25.844Z,99875.13
2023-02-03T13:57:57.927Z,99869.56
2023-02-03T13:59:38.954Z,99876.09
2023-02-03T14:01:29.664Z,99876.09
2023-02-03T14:03:01.457Z,99877.47
2023-02-03T14:04:36.482Z,99880.91
2023-02-03T14:06:37.153Z,99884.56
2023-02-03T14:08:27.574Z,99899.50
2023-02-03T14:10:14.405Z,99905.72
2023-02-03T14:11:47.486Z,99899.28
2023-02-03T14:13:21.429Z,99897.59
2023-02-03T14:14:53.134Z,99898.56
2023-02-03T14:16:25.982Z,99901.31
2023-02-03T14:18:03.856Z,99910.09
2023-02-03T14:19:35.523Z,99905.63
2023-02-03T14:21:14.720Z,99909.91
2023-02-03T14:22:46.436Z,99918.13
2023-02-03T14:24:19.804Z,99915.34
2023-02-03T14:25:56.486Z,99907.22
2023-02-03T14:27:30.223Z,99912.47
2023-02-03T14:29:03.892Z,99916.09
2023-02-03T14:31:03.474Z,99925.09
2023-02-03T14:33:03.161Z,99910.97
2023-02-03T14:34:39.519Z,99908.94
2023-02-03T14:36:44.509Z,99925.19
2023-02-03T14:38:16.561Z,99928.50
2023-02-03T14:39:59.485Z,99939.31
2023-02-03T14:41:52.821Z,99911.59
2023-02-03T14:43:51.576Z,99911.06
2023-02-03T14:45:52.577Z,99914.69
2023-02-03T14:47:30.159Z,99931.50
2023-02-03T14:49:04.687Z,99928.81
2023-02-03T14:51:02.866Z,99941.44
2023-02-03T14:53:12.071Z,99945.19
2023-02-03T14:55:28.448Z,99943.38
2023-02-03T14:57:24.514Z,99937.38
2023-02-03T14:59:04.803Z,99939.06
2023-02-03T15:00:37.649Z,99941.84
2023-02-03T15:02:15.097Z,99936.41
2023-02-03T15:04:12.322Z,99940.13
2023-02-03T15:05:53.024Z,99938.31
2023-02-03T15:07:34.297Z,99931.25
2023-02-03T15:09:30.278Z,99933.94
2023-02-03T15:11:27.151Z,99955.19
2023-02-03T15:12:58.995Z,99951.47
2023-02-03T15:14:33.895Z,99949.66
2023-02-03T15:16:06.465Z,99955.31
2023-02-03T15:17:38.946Z,99967.63
2023-02-03T15:19:19.249Z,99971.34
2023-02-03T15:20:55.673Z,99975.72
2023-02-03T15:22:30.308Z,99963.97
2023-02-03T15:24:02.060Z,99978.31
2023-02-03T15:25:33.887Z,99973.19
2023-02-03T15:27:05.657Z,99974.03
2023-02-03T15:28:37.360Z,99974.03
2023-02-03T15:30:25.124Z,99980.34
2023-02-03T15:32:02.837Z,99982.06
2023-02-03T15:33:38.326Z,99983.75
2023-02-03T15:35:16.749Z,99975.72
2023-02-03T15:36:52.279Z,99994.38
2023-02-03T15:38:38.652Z,99989.88
2023-02-03T15:40:18.975Z,99990.72
2023-02-03T15:41:56.613Z,99994.16
2023-02-03T15:43:40.745Z,100000.38
2023-02-03T15:45:15.493Z,100008.19
2023-02-03T15:46:51.923Z,99999.19
2023-02-03T15:48:39.365Z,99998.34
2023-02-03T15:50:29.998Z,100010.84
2023-02-03T15:52:17.072Z,100001.66
2023-02-03T15:53:56.867Z,100006.94
2023-02-03T15:55:36.103Z,100010.34
2023-02-03T15:57:18.768Z,100012.94
2023-02-03T15:58:50.758Z,100007.25
2023-02-03T16:00:41.161Z,100006.41
2023-02-03T16:02:29.591Z,100009.84
2023-02-03T16:04:01.585Z,100002.56
2023-02-03T16:05:35.206Z,100018.41
2023-02-03T16:07:07.064Z,100010.19
2023-02-03T16:08:48.778Z,100017.25
2023-02-03T16:10:33.530Z,100018.97
2023-02-03T16:12:33.277Z,100017.16
2023-02-03T16:14:08.125Z,100019.50
2023-02-03T16:15:39.861Z,100025.63
2023-02-03T16:17:30.442Z,100041.78
2023-02-03T16:19:11.187Z,100021.91
2023-02-03T16:20:50.149Z,100032.41
2023-02-03T16:22:31.971Z,100027.91
2023-02-03T16:24:05.788Z,100033.91
2023-02-03T16:25:37.695Z,100042.78
2023-02-03T16:27:28.435Z,100037.31
2023-02-03T16:29:31.587Z,100035.59
2023-02-03T16:31:39.187Z,100026.41
2023-02-03T16:33:33.393Z,100023.94
2023-02-03T16:35:28.947Z,100042.47
2023-02-03T16:37:19.764Z,100047.72
2023-02-03T16:39:10.015Z,100042.16
2023-02-03T16:41:00.613Z,100045.81
2023-02-03T16:42:57.737Z,100053.84
2023-02-03T16:44:47.977Z,100055.34
2023-02-03T16:46:38.535Z,100063.47
2023-02-03T16:48:31.335Z,100047.41
2023-02-03T16:50:32.764Z,100056.19
2023-02-03T16:52:09.076Z,100056.97
2023-02-03T16:53:40.825Z,100062.19
2023-02-03T16:55:12.559Z,100058.56
2023-02-03T16:56:44.336Z,100060.50
2023-02-03T16:58:16.555Z,100051.69
2023-02-03T16:59:48.273Z,100066.69
2023-02-03T17:01:20.411Z,100062.00
2023-02-03T17:02:52.712Z,100060.16
2023-02-03T17:04:24.432Z,100064.47
2023-02-03T17:05:57.558Z,100064.47
2023-02-03T17:07:29.387Z,100071.53
2023-02-03T17:09:01.135Z,100072.50
2023-02-03T17:10:34.981Z,100066.50
2023-02-03T17:12:06.797Z,100079.88
2023-02-03T17:13:38.808Z,100071.66
2023-02-03T17:15:10.740Z,100073.34
2023-02-03T17:16:42.564Z,100079.69
2023-02-03T17:18:15.713Z,100081.38
2023-02-03T17:19:47.495Z,100084.06
2023-02-03T17:21:25.471Z,100087.50
2023-02-03T17:22:57.246Z,100092.00
2023-02-03T17:24:28.933Z,100092.84
2023-02-03T17:26:00.980Z,100091.13
2023-02-03T17:27:32.717Z,100093.91
2023-02-03T17:29:04.524Z,100090.19
2023-02-03T17:30:36.501Z,100090.91
2023-02-03T17:32:08.475Z,100078.63
2023-02-03T17:33:40.879Z,100098.09
2023-02-03T17:35:12.677Z,100092.00
2023-02-03T17:36:44.412Z,100089.31
2023-02-03T17:38:16.126Z,100100.88
2023-02-03T17:53:56.536Z,100124.78
2023-02-03T17:55:28.636Z,100131.84
2023-02-03T17:57:00.766Z,100132.81
2023-02-03T17:58:32.508Z,100127.34
2023-02-03T18:00:06.954Z,100146.84
2023-02-03T18:01:44.161Z,100150.38
2023-02-03T18:03:15.854Z,100133.34
2023-02-03T18:04:47.598Z,100154.75
2023-02-03T18:06:21.810Z,100155.59
2023-02-03T18:07:53.554Z,100143.84
2023-02-03T18:09:25.351Z,100159.06
2023-02-03T18:10:57.098Z,100161.72
2023-02-03T18:12:30.087Z,100152.72
2023-02-03T18:14:02.181Z,100162.50
2023-02-03T18:15:33.919Z,100173.22
2023-02-03T18:17:05.666Z,100166.13
2023-02-03T18:18:39.030Z,100163.44
2023-02-03T18:20:11.653Z,100168.72
2023-02-03T18:21:44.168Z,100169.66
2023-02-03T18:23:15.889Z,100175.78
2023-02-03T18:24:51.834Z,100180.28
2023-02-03T18:26:23.627Z,100173.22
2023-02-03T18:27:55.408Z,100180.47
2023-02-03T18:29:28.628Z,100170.41
2023-02-03T18:31:04.230Z,100186.59
2023-02-03T18:32:42.133Z,100176.81
2023-02-03T18:34:15.588Z,100173.41
2023-02-03T18:35:47.606Z,100186.03
2023-02-03T18:37:57.380Z,100173.50
2023-02-03T18:39:32.226Z,100185.94
2023-02-03T18:41:06.499Z,100183.25
2023-02-03T18:42:38.276Z,100197.50
2023-02-03T18:44:10.016Z,100193.09
2023-02-03T18:45:41.775Z,100184.31
2023-02-03T18:47:13.509Z,100178.97
2023-02-03T18:48:45.525Z,100181.66
2023-02-03T18:50:17.364Z,100189.66
2023-02-03T18:51:49.101Z,100193.28
2023-02-03T18:53:20.811Z,100195.97
2023-02-03T18:54:52.557Z,100201.44
2023-02-03T18:56:27.321Z,100198.00
2023-02-03T18:57:59.038Z,100206.78